sensor_id;sensor_type;location;lat;lon;timestamp;pressure;altitude;pressure_sealevel;temperature;humidity
44825;BME280;30542;47.928;2.138;2022-08-03T00:02:51;100336.72;;;25.68;46.54
44825;BME280;30542;47.928;2.138;2022-08-03T00:07:51;100336.72;;;25.68;46.38
44825;BME280;30542;47.928;2.138;2022-08-03T00:12:52;100346.72;;;25.68;46.35
44825;BME280;30542;47.928;2.138;2022-08-03T00:17:53;100339.41;;;25.68;46.28
44825;BME280;30542;47.928;2.138;2022-08-03T00:28:50;100331.13;;;25.65;46.20
44825;BME280;30542;47.928;2.138;2022-08-03T00:33:50;100335.72;;;25.64;46.14
44825;BME280;30542;47.928;2.138;2022-08-03T00:38:50;100333.03;;;25.64;46.32
44825;BME280;30542;47.928;2.138;2022-08-03T00:43:51;100324.44;;;25.62;46.17
44825;BME280;30542;47.928;2.138;2022-08-03T00:48:51;100331.25;;;25.60;46.22
44825;BME280;30542;47.928;2.138;2022-08-03T00:53:52;100319.94;;;25.58;46.01
44825;BME280;30542;47.928;2.138;2022-08-03T00:58:55;100323.94;;;25.60;46.15
44825;BME280;30542;47.928;2.138;2022-08-03T01:03:56;100324.53;;;25.57;45.89
44825;BME280;30542;47.928;2.138;2022-08-03T01:15:37;100304.34;;;25.54;45.92
44825;BME280;30542;47.928;2.138;2022-08-03T01:20:43;100303.56;;;25.54;45.97
44825;BME280;30542;47.928;2.138;2022-08-03T01:31:10;100295.25;;;25.50;45.79
44825;BME280;30542;47.928;2.138;2022-08-03T01:36:17;100295.59;;;25.49;45.66
44825;BME280;30542;47.928;2.138;2022-08-03T01:41:24;100285.91;;;25.48;45.80
44825;BME280;30542;47.928;2.138;2022-08-03T01:46:30;100288.59;;;25.48;45.74
44825;BME280;30542;47.928;2.138;2022-08-03T01:51:32;100289.19;;;25.45;45.77
44825;BME280;30542;47.928;2.138;2022-08-03T01:56:34;100293.47;;;25.46;45.57
44825;BME280;30542;47.928;2.138;2022-08-03T02:01:36;100292.19;;;25.43;45.47
44825;BME280;30542;47.928;2.138;2022-08-03T02:06:37;100287.19;;;25.37;45.46
44825;BME280;30542;47.928;2.138;2022-08-03T02:11:39;100280.41;;;25.39;45.43
44825;BME280;30542;47.928;2.138;2022-08-03T02:16:42;100279.00;;;25.42;45.04
44825;BME280;30542;47.928;2.138;2022-08-03T02:21:44;100262.72;;;25.33;45.16
44825;BME280;30542;47.928;2.138;2022-08-03T02:26:46;100261.53;;;25.39;45.40
44825;BME280;30542;47.928;2.138;2022-08-03T02:31:48;100260.53;;;25.35;45.23
44825;BME280;30542;47.928;2.138;2022-08-03T02:36:50;100259.94;;;25.38;45.20
44825;BME280;30542;47.928;2.138;2022-08-03T02:41:55;100265.16;;;25.35;45.26
44825;BME280;30542;47.928;2.138;2022-08-03T02:47:04;100258.66;;;25.36;45.11
44825;BME280;30542;47.928;2.138;2022-08-03T02:52:09;100271.44;;;25.30;45.19
44825;BME280;30542;47.928;2.138;2022-08-03T02:57:12;100272.25;;;25.31;45.00
44825;BME280;30542;47.928;2.138;2022-08-03T03:02:14;100269.34;;;25.27;45.15
44825;BME280;30542;47.928;2.138;2022-08-03T03:07:15;100271.25;;;25.26;45.43
44825;BME280;30542;47.928;2.138;2022-08-03T03:12:17;100272.31;;;25.25;45.31
44825;BME280;30542;47.928;2.138;2022-08-03T03:17:19;100272.63;;;25.24;45.43
44825;BME280;30542;47.928;2.138;2022-08-03T03:22:20;100282.63;;;25.23;45.15
44825;BME280;30542;47.928;2.138;2022-08-03T03:27:22;100271.75;;;25.15;45.36
44825;BME280;30542;47.928;2.138;2022-08-03T03:32:23;100279.72;;;25.20;45.50
44825;BME280;30542;47.928;2.138;2022-08-03T03:37:25;100273.13;;;25.12;45.36
44825;BME280;30542;47.928;2.138;2022-08-03T03:42:25;100278.41;;;25.17;45.32
44825;BME280;30542;47.928;2.138;2022-08-03T03:47:26;100273.84;;;25.18;45.15
44825;BME280;30542;47.928;2.138;2022-08-03T03:52:27;100274.44;;;25.15;45.19
44825;BME280;30542;47.928;2.138;2022-08-03T03:57:28;100281.72;;;25.14;44.90
44825;BME280;30542;47.928;2.138;2022-08-03T04:02:28;100280.94;;;25.14;45.04
44825;BME280;30542;47.928;2.138;2022-08-03T04:07:34;100278.81;;;25.11;45.00
44825;BME280;30542;47.928;2.138;2022-08-03T04:13:07;100278.81;;;25.11;44.98
44825;BME280;30542;47.928;2.138;2022-08-03T04:18:11;100286.91;;;25.11;44.55
44825;BME280;30542;47.928;2.138;2022-08-03T04:23:15;100282.31;;;25.11;45.17
44825;BME280;30542;47.928;2.138;2022-08-03T04:28:18;100286.31;;;25.14;44.94
44825;BME280;30542;47.928;2.138;2022-08-03T04:33:20;100281.22;;;25.12;45.11
44825;BME280;30542;47.928;2.138;2022-08-03T04:38:23;100276.19;;;25.05;45.32
44825;BME280;30542;47.928;2.138;2022-08-03T04:43:24;100285.56;;;25.08;45.13
44825;BME280;30542;47.928;2.138;2022-08-03T04:48:26;100286.97;;;25.05;45.05
44825;BME280;30542;47.928;2.138;2022-08-03T04:53:26;100304.75;;;25.07;45.24
44825;BME280;30542;47.928;2.138;2022-08-03T04:58:27;100288.56;;;25.07;45.07
44825;BME280;30542;47.928;2.138;2022-08-03T05:03:27;100290.47;;;25.06;45.18
44825;BME280;30542;47.928;2.138;2022-08-03T05:08:28;100295.34;;;25.04;45.18
44825;BME280;30542;47.928;2.138;2022-08-03T05:13:28;100299.66;;;25.05;45.02
44825;BME280;30542;47.928;2.138;2022-08-03T05:18:28;100293.16;;;25.06;45.26
44825;BME280;30542;47.928;2.138;2022-08-03T05:23:29;100289.25;;;24.98;45.25
44825;BME280;30542;47.928;2.138;2022-08-03T05:28:30;100299.94;;;25.03;45.38
44825;BME280;30542;47.928;2.138;2022-08-03T05:33:30;100300.75;;;25.04;45.28
44825;BME280;30542;47.928;2.138;2022-08-03T05:38:31;100298.84;;;25.04;45.45
44825;BME280;30542;47.928;2.138;2022-08-03T05:43:32;100303.16;;;25.05;45.50
44825;BME280;30542;47.928;2.138;2022-08-03T05:48:32;100310.72;;;25.03;45.65
44825;BME280;30542;47.928;2.138;2022-08-03T05:53:33;100306.13;;;25.04;45.75
44825;BME280;30542;47.928;2.138;2022-08-03T05:58:34;100309.13;;;25.02;45.61
44825;BME280;30542;47.928;2.138;2022-08-03T06:03:34;100318.53;;;25.05;45.94
44825;BME280;30542;47.928;2.138;2022-08-03T06:08:35;100311.25;;;25.05;45.79
44825;BME280;30542;47.928;2.138;2022-08-03T06:13:36;100303.16;;;25.05;45.75
44825;BME280;30542;47.928;2.138;2022-08-03T06:18:37;100309.44;;;25.01;46.00
44825;BME280;30542;47.928;2.138;2022-08-03T06:23:37;100313.94;;;25.05;46.15
44825;BME280;30542;47.928;2.138;2022-08-03T06:28:38;100309.63;;;25.04;46.25
44825;BME280;30542;47.928;2.138;2022-08-03T06:33:38;100307.91;;;24.95;47.99
44825;BME280;30542;47.928;2.138;2022-08-03T06:38:39;100312.72;;;24.98;48.19
44825;BME280;30542;47.928;2.138;2022-08-03T06:43:40;100318.75;;;25.09;48.63
44825;BME280;30542;47.928;2.138;2022-08-03T06:48:41;100313.75;;;25.16;48.52
44825;BME280;30542;47.928;2.138;2022-08-03T06:53:41;100313.59;;;25.26;48.86
44825;BME280;30542;47.928;2.138;2022-08-03T06:58:42;100315.38;;;25.44;48.98
44825;BME280;30542;47.928;2.138;2022-08-03T07:03:42;100314.34;;;25.54;48.74
44825;BME280;30542;47.928;2.138;2022-08-03T07:08:43;100317.84;;;25.41;48.06
44825;BME280;30542;47.928;2.138;2022-08-03T07:13:43;100314.75;;;25.34;48.31
44825;BME280;30542;47.928;2.138;2022-08-03T07:18:43;100322.03;;;25.33;48.30
44825;BME280;30542;47.928;2.138;2022-08-03T07:23:44;100315.06;;;25.32;48.26
44825;BME280;30542;47.928;2.138;2022-08-03T07:28:44;100315.06;;;25.32;47.97
44825;BME280;30542;47.928;2.138;2022-08-03T07:33:45;100314.75;;;25.34;48.03
44825;BME280;30542;47.928;2.138;2022-08-03T07:38:45;100320.97;;;25.34;48.10
44825;BME280;30542;47.928;2.138;2022-08-03T07:43:45;100316.38;;;25.35;47.77
44825;BME280;30542;47.928;2.138;2022-08-03T07:48:46;100317.38;;;25.39;47.78
44825;BME280;30542;47.928;2.138;2022-08-03T07:53:46;100311.19;;;25.38;47.72
44825;BME280;30542;47.928;2.138;2022-08-03T07:58:50;100310.88;;;25.40;47.81
44825;BME280;30542;47.928;2.138;2022-08-03T08:03:50;100312.19;;;25.42;47.68
44825;BME280;30542;47.928;2.138;2022-08-03T08:08:51;100309.47;;;25.42;47.51
44825;BME280;30542;47.928;2.138;2022-08-03T08:13:51;100312.66;;;25.44;47.50
44825;BME280;30542;47.928;2.138;2022-08-03T08:18:51;100301.88;;;25.44;47.54
44825;BME280;30542;47.928;2.138;2022-08-03T08:23:52;100295.50;;;25.40;47.49
44825;BME280;30542;47.928;2.138;2022-08-03T08:28:52;100304.47;;;25.49;47.60
44825;BME280;30542;47.928;2.138;2022-08-03T08:33:52;100300.06;;;25.53;47.36
44825;BME280;30542;47.928;2.138;2022-08-03T08:38:53;100305.19;;;25.55;47.29
44825;BME280;30542;47.928;2.138;2022-08-03T08:43:54;100305.34;;;25.59;47.28
44825;BME280;30542;47.928;2.138;2022-08-03T08:48:55;100301.25;;;25.61;47.12
44825;BME280;30542;47.928;2.138;2022-08-03T08:54:00;100299.75;;;25.69;46.80
44825;BME280;30542;47.928;2.138;2022-08-03T08:59:01;100287.66;;;25.66;46.52
44825;BME280;30542;47.928;2.138;2022-08-03T09:04:05;100288.44;;;25.67;46.08
44825;BME280;30542;47.928;2.138;2022-08-03T09:09:06;100286.66;;;25.76;46.14
44825;BME280;30542;47.928;2.138;2022-08-03T09:14:08;100292.56;;;25.78;46.09
44825;BME280;30542;47.928;2.138;2022-08-03T09:19:12;100288.75;;;25.79;45.96
44825;BME280;30542;47.928;2.138;2022-08-03T09:24:13;100285.84;;;25.89;45.46
44825;BME280;30542;47.928;2.138;2022-08-03T09:29:14;100284.63;;;25.95;45.27
44825;BME280;30542;47.928;2.138;2022-08-03T09:34:24;100283.53;;;25.96;45.21
44825;BME280;30542;47.928;2.138;2022-08-03T09:39:26;100275.06;;;25.89;45.21
44825;BME280;30542;47.928;2.138;2022-08-03T09:44:35;100285.72;;;25.94;45.42
44825;BME280;30542;47.928;2.138;2022-08-03T09:49:40;100272.09;;;25.99;45.27
44825;BME280;30542;47.928;2.138;2022-08-03T09:54:42;100266.84;;;26.17;44.64
44825;BME280;30542;47.928;2.138;2022-08-03T09:59:42;100254.91;;;26.09;44.35
44825;BME280;30542;47.928;2.138;2022-08-03T10:04:46;100257.78;;;26.13;44.62
44825;BME280;30542;47.928;2.138;2022-08-03T10:14:55;100266.34;;;26.15;44.89
44825;BME280;30542;47.928;2.138;2022-08-03T10:19:55;100257.41;;;26.06;45.15
44825;BME280;30542;47.928;2.138;2022-08-03T10:25:28;100249.19;;;26.11;45.26
44825;BME280;30542;47.928;2.138;2022-08-03T10:30:31;100244.28;;;26.13;45.12
44825;BME280;30542;47.928;2.138;2022-08-03T10:35:32;100242.53;;;26.17;44.53
44825;BME280;30542;47.928;2.138;2022-08-03T10:40:33;100245.25;;;26.17;44.33
44825;BME280;30542;47.928;2.138;2022-08-03T10:45:40;100226.34;;;26.17;44.11
44825;BME280;30542;47.928;2.138;2022-08-03T10:50:41;100228.44;;;26.20;44.53
44825;BME280;30542;47.928;2.138;2022-08-03T10:55:44;100227.09;;;26.31;43.86
44825;BME280;30542;47.928;2.138;2022-08-03T11:01:08;100218.00;;;26.27;43.86
44825;BME280;30542;47.928;2.138;2022-08-03T11:06:23;100218.38;;;26.34;43.54
44825;BME280;30542;47.928;2.138;2022-08-03T11:11:24;100201.19;;;26.30;43.91
44825;BME280;30542;47.928;2.138;2022-08-03T11:16:28;100203.88;;;26.30;44.13
44825;BME280;30542;47.928;2.138;2022-08-03T11:21:55;100203.16;;;26.38;43.88
44825;BME280;30542;47.928;2.138;2022-08-03T11:42:53;100189.63;;;26.38;43.58
44825;BME280;30542;47.928;2.138;2022-08-03T11:47:54;100182.47;;;26.34;44.08
44825;BME280;30542;47.928;2.138;2022-08-03T11:52:54;100188.47;;;26.31;44.62
44825;BME280;30542;47.928;2.138;2022-08-03T11:57:58;100175.59;;;26.27;44.34
44825;BME280;30542;47.928;2.138;2022-08-03T12:03:01;100175.59;;;26.27;44.76
44825;BME280;30542;47.928;2.138;2022-08-03T12:08:02;100175.59;;;26.27;44.83
44825;BME280;30542;47.928;2.138;2022-08-03T12:13:05;100163.38;;;26.30;44.88
44825;BME280;30542;47.928;2.138;2022-08-03T12:18:16;100165.44;;;26.33;45.26
44825;BME280;30542;47.928;2.138;2022-08-03T12:23:18;100154.47;;;26.61;42.11
44825;BME280;30542;47.928;2.138;2022-08-03T12:28:20;100150.66;;;26.62;42.04
44825;BME280;30542;47.928;2.138;2022-08-03T12:33:26;100151.16;;;26.64;42.37
44825;BME280;30542;47.928;2.138;2022-08-03T12:38:26;100145.41;;;26.57;42.15
44825;BME280;30542;47.928;2.138;2022-08-03T12:43:27;100148.31;;;26.69;42.34
44825;BME280;30542;47.928;2.138;2022-08-03T12:48:27;100146.09;;;26.71;42.53
44825;BME280;30542;47.928;2.138;2022-08-03T12:53:28;100143.25;;;26.76;42.69
44825;BME280;30542;47.928;2.138;2022-08-03T12:58:31;100138.97;;;26.75;44.76
44825;BME280;30542;47.928;2.138;2022-08-03T13:03:46;100132.63;;;26.80;43.92
44825;BME280;30542;47.928;2.138;2022-08-03T13:08:47;100125.75;;;26.73;43.68
44825;BME280;30542;47.928;2.138;2022-08-03T13:13:49;100111.78;;;26.71;43.15
44825;BME280;30542;47.928;2.138;2022-08-03T13:18:50;100121.63;;;26.76;42.78
44825;BME280;30542;47.928;2.138;2022-08-03T13:23:53;100120.06;;;26.75;43.16
44825;BME280;30542;47.928;2.138;2022-08-03T13:28:54;100123.22;;;26.77;43.04
44825;BME280;30542;47.928;2.138;2022-08-03T13:33:54;100114.66;;;26.84;43.49
44825;BME280;30542;47.928;2.138;2022-08-03T13:38:54;100112.94;;;26.96;43.05
44825;BME280;30542;47.928;2.138;2022-08-03T13:43:55;100107.41;;;27.10;42.72
44825;BME280;30542;47.928;2.138;2022-08-03T13:48:55;100098.47;;;27.01;42.94
44825;BME280;30542;47.928;2.138;2022-08-03T13:53:55;100099.31;;;27.10;42.70
44825;BME280;30542;47.928;2.138;2022-08-03T13:58:58;100095.97;;;27.13;42.90
44825;BME280;30542;47.928;2.138;2022-08-03T14:03:59;100088.28;;;27.07;42.84
44825;BME280;30542;47.928;2.138;2022-08-03T14:08:59;100082.41;;;26.96;42.47
44825;BME280;30542;47.928;2.138;2022-08-03T14:13:59;100082.09;;;27.06;42.43
44825;BME280;30542;47.928;2.138;2022-08-03T14:19:00;100076.53;;;27.02;42.76
44825;BME280;30542;47.928;2.138;2022-08-03T14:24:00;100068.91;;;26.96;42.90
44825;BME280;30542;47.928;2.138;2022-08-03T14:29:01;100058.56;;;26.98;43.12
44825;BME280;30542;47.928;2.138;2022-08-03T14:34:04;100058.88;;;27.05;43.56
44825;BME280;30542;47.928;2.138;2022-08-03T14:39:04;100054.59;;;27.04;43.19
44825;BME280;30542;47.928;2.138;2022-08-03T14:44:04;100041.88;;;27.05;43.34
44825;BME280;30542;47.928;2.138;2022-08-03T14:49:05;100047.59;;;27.12;43.17
44825;BME280;30542;47.928;2.138;2022-08-03T14:54:05;100048.06;;;27.05;42.89
44825;BME280;30542;47.928;2.138;2022-08-03T14:59:06;100034.06;;;27.03;43.29
44825;BME280;30542;47.928;2.138;2022-08-03T15:04:06;100032.00;;;27.09;42.89
44825;BME280;30542;47.928;2.138;2022-08-03T15:09:06;100025.84;;;27.17;43.36
44825;BME280;30542;47.928;2.138;2022-08-03T15:14:07;100024.22;;;27.16;43.00
44825;BME280;30542;47.928;2.138;2022-08-03T15:19:07;100014.53;;;27.15;42.92
44825;BME280;30542;47.928;2.138;2022-08-03T15:24:08;100010.38;;;27.26;42.48
44825;BME280;30542;47.928;2.138;2022-08-03T15:29:08;100007.66;;;27.35;42.22
44825;BME280;30542;47.928;2.138;2022-08-03T15:34:09;99995.06;;;27.47;39.83
44825;BME280;30542;47.928;2.138;2022-08-03T15:39:11;99995.06;;;27.47;40.09
44825;BME280;30542;47.928;2.138;2022-08-03T15:44:11;99988.41;;;27.36;40.28
44825;BME280;30542;47.928;2.138;2022-08-03T15:49:12;99985.88;;;27.31;40.55
44825;BME280;30542;47.928;2.138;2022-08-03T15:54:12;99982.06;;;27.32;39.67
44825;BME280;30542;47.928;2.138;2022-08-03T15:59:13;99984.75;;;27.32;39.64
44825;BME280;30542;47.928;2.138;2022-08-03T16:04:13;99977.44;;;27.24;39.93
44825;BME280;30542;47.928;2.138;2022-08-03T16:09:14;99976.66;;;27.23;39.94
44825;BME280;30542;47.928;2.138;2022-08-03T16:14:14;99932.47;;;27.02;40.18
44825;BME280;30542;47.928;2.138;2022-08-03T16:19:15;99966.97;;;27.22;40.21
44825;BME280;30542;47.928;2.138;2022-08-03T16:24:15;99965.06;;;27.23;40.37
44825;BME280;30542;47.928;2.138;2022-08-03T16:29:15;99960.91;;;27.34;40.87
44825;BME280;30542;47.928;2.138;2022-08-03T16:34:16;99960.88;;;27.43;40.48
44825;BME280;30542;47.928;2.138;2022-08-03T16:39:16;99955.91;;;27.45;40.42
44825;BME280;30542;47.928;2.138;2022-08-03T16:44:17;99958.50;;;27.41;41.04
44825;BME280;30542;47.928;2.138;2022-08-03T16:49:17;99958.31;;;27.46;41.35
44825;BME280;30542;47.928;2.138;2022-08-03T16:54:17;99956.06;;;27.48;40.96
44825;BME280;30542;47.928;2.138;2022-08-03T16:59:20;99937.50;;;27.38;41.18
44825;BME280;30542;47.928;2.138;2022-08-03T17:04:20;99943.19;;;27.45;41.17
44825;BME280;30542;47.928;2.138;2022-08-03T17:09:21;99942.56;;;27.48;40.77
44825;BME280;30542;47.928;2.138;2022-08-03T17:14:21;99942.56;;;27.48;41.04
44825;BME280;30542;47.928;2.138;2022-08-03T17:19:23;99940.19;;;27.47;41.15
44825;BME280;30542;47.928;2.138;2022-08-03T17:24:34;99940.19;;;27.47;41.07
44825;BME280;30542;47.928;2.138;2022-08-03T17:29:38;99933.31;;;27.49;41.12
44825;BME280;30542;47.928;2.138;2022-08-03T17:34:42;99936.28;;;27.65;39.36
44825;BME280;30542;47.928;2.138;2022-08-03T17:39:44;99939.31;;;27.64;39.20
44825;BME280;30542;47.928;2.138;2022-08-03T17:44:45;99941.69;;;27.65;39.47
44825;BME280;30542;47.928;2.138;2022-08-03T17:49:45;99939.50;;;27.59;39.53
44825;BME280;30542;47.928;2.138;2022-08-03T17:55:11;99945.88;;;27.54;39.56
44825;BME280;30542;47.928;2.138;2022-08-03T18:00:15;99944.63;;;27.51;40.51
44825;BME280;30542;47.928;2.138;2022-08-03T18:05:35;99944.94;;;27.50;40.18
44825;BME280;30542;47.928;2.138;2022-08-03T18:10:37;99944.00;;;27.46;40.50
44825;BME280;30542;47.928;2.138;2022-08-03T18:15:42;99952.25;;;27.49;40.83
44825;BME280;30542;47.928;2.138;2022-08-03T18:20:44;99946.03;;;27.49;40.55
44825;BME280;30542;47.928;2.138;2022-08-03T18:25:46;99943.34;;;27.49;41.09
44825;BME280;30542;47.928;2.138;2022-08-03T18:30:46;99953.38;;;27.48;41.13
44825;BME280;30542;47.928;2.138;2022-08-03T18:35:48;99951.78;;;27.47;41.15
44825;BME280;30542;47.928;2.138;2022-08-03T18:40:49;99955.63;;;27.46;41.42
44825;BME280;30542;47.928;2.138;2022-08-03T18:45:52;99948.59;;;27.45;41.91
44825;BME280;30542;47.928;2.138;2022-08-03T18:51:02;99957.84;;;27.44;42.39
44825;BME280;30542;47.928;2.138;2022-08-03T18:56:35;99952.44;;;27.44;42.56
44825;BME280;30542;47.928;2.138;2022-08-03T19:06:43;99960.53;;;27.44;42.56
44825;BME280;30542;47.928;2.138;2022-08-03T19:11:48;99961.34;;;27.45;43.01
44825;BME280;30542;47.928;2.138;2022-08-03T19:16:56;99960.53;;;27.44;43.39
44825;BME280;30542;47.928;2.138;2022-08-03T19:22:04;99961.34;;;27.45;43.64
44825;BME280;30542;47.928;2.138;2022-08-03T19:27:07;99945.13;;;27.36;43.47
44825;BME280;30542;47.928;2.138;2022-08-03T19:32:08;99960.53;;;27.44;43.85
44825;BME280;30542;47.928;2.138;2022-08-03T19:37:13;99969.78;;;27.43;43.89
44825;BME280;30542;47.928;2.138;2022-08-03T19:42:17;99975.97;;;27.44;44.08
44825;BME280;30542;47.928;2.138;2022-08-03T19:47:34;99974.88;;;27.36;44.15
44825;BME280;30542;47.928;2.138;2022-08-03T19:52:37;99993.00;;;27.44;44.49
44825;BME280;30542;47.928;2.138;2022-08-03T19:57:41;99991.59;;;27.38;44.82
44825;BME280;30542;47.928;2.138;2022-08-03T20:02:42;99994.31;;;27.38;44.88
44825;BME280;30542;47.928;2.138;2022-08-03T20:07:43;99996.38;;;27.41;45.42
44825;BME280;30542;47.928;2.138;2022-08-03T20:12:46;99995.56;;;27.41;45.19
44825;BME280;30542;47.928;2.138;2022-08-03T20:17:47;100002.41;;;27.38;44.88
44825;BME280;30542;47.928;2.138;2022-08-03T20:22:48;100005.75;;;27.35;44.85
44825;BME280;30542;47.928;2.138;2022-08-03T20:27:59;100008.31;;;27.32;45.42
44825;BME280;30542;47.928;2.138;2022-08-03T20:33:02;100015.16;;;27.29;45.98
44825;BME280;30542;47.928;2.138;2022-08-03T20:38:02;100019.47;;;27.21;45.68
44825;BME280;30542;47.928;2.138;2022-08-03T20:43:02;100024.09;;;27.21;46.01
44825;BME280;30542;47.928;2.138;2022-08-03T20:48:03;100022.28;;;27.08;47.48
44825;BME280;30542;47.928;2.138;2022-08-03T20:53:05;100023.09;;;26.99;47.75
44825;BME280;30542;47.928;2.138;2022-08-03T20:58:06;100013.22;;;27.03;47.54
44825;BME280;30542;47.928;2.138;2022-08-03T21:03:07;100019.91;;;27.06;47.46
44825;BME280;30542;47.928;2.138;2022-08-03T21:08:10;100005.44;;;26.93;47.52
44825;BME280;30542;47.928;2.138;2022-08-03T21:13:22;100011.97;;;26.92;47.72
44825;BME280;30542;47.928;2.138;2022-08-03T21:18:24;100010.38;;;26.91;47.17
44825;BME280;30542;47.928;2.138;2022-08-03T21:23:25;100012.75;;;26.93;46.83
44825;BME280;30542;47.928;2.138;2022-08-03T21:28:26;100013.41;;;26.90;46.76
44825;BME280;30542;47.928;2.138;2022-08-03T21:33:27;100006.25;;;26.85;46.46
44825;BME280;30542;47.928;2.138;2022-08-03T21:38:28;100006.88;;;26.82;46.19
44825;BME280;30542;47.928;2.138;2022-08-03T21:43:29;100001.00;;;26.80;45.52
44825;BME280;30542;47.928;2.138;2022-08-03T21:48:36;99997.19;;;26.81;45.84
44825;BME280;30542;47.928;2.138;2022-08-03T21:53:37;99997.50;;;26.80;45.60
44825;BME280;30542;47.928;2.138;2022-08-03T21:58:40;99987.66;;;26.84;45.98
44825;BME280;30542;47.928;2.138;2022-08-03T22:03:44;99995.91;;;26.78;46.22
44825;BME280;30542;47.928;2.138;2022-08-03T22:08:46;99995.75;;;26.75;46.56
44825;BME280;30542;47.928;2.138;2022-08-03T22:13:47;99994.47;;;26.72;46.54
44825;BME280;30542;47.928;2.138;2022-08-03T22:18:47;99984.13;;;26.66;46.17
44825;BME280;30542;47.928;2.138;2022-08-03T22:23:50;99998.28;;;26.71;46.19
44825;BME280;30542;47.928;2.138;2022-08-03T22:28:52;99997.00;;;26.69;46.39
44825;BME280;30542;47.928;2.138;2022-08-03T22:33:52;99981.44;;;26.66;46.33
44825;BME280;30542;47.928;2.138;2022-08-03T22:38:53;99979.53;;;26.66;46.74
44825;BME280;30542;47.928;2.138;2022-08-03T22:43:57;99989.06;;;26.64;47.13
44825;BME280;30542;47.928;2.138;2022-08-03T22:48:58;99990.81;;;26.60;47.67
44825;BME280;30542;47.928;2.138;2022-08-03T22:54:01;99991.59;;;26.60;47.71
44825;BME280;30542;47.928;2.138;2022-08-03T22:59:02;99994.94;;;26.57;47.43
44825;BME280;30542;47.928;2.138;2022-08-03T23:04:03;99997.47;;;26.53;47.70
44825;BME280;30542;47.928;2.138;2022-08-03T23:09:10;100007.97;;;26.55;47.55
44825;BME280;30542;47.928;2.138;2022-08-03T23:14:15;100000.81;;;26.50;47.81
44825;BME280;30542;47.928;2.138;2022-08-03T23:19:18;100006.34;;;26.54;47.63
44825;BME280;30542;47.928;2.138;2022-08-03T23:24:19;100000.81;;;26.50;47.12
44825;BME280;30542;47.928;2.138;2022-08-03T23:29:20;99999.53;;;26.48;47.55
44825;BME280;30542;47.928;2.138;2022-08-03T23:34:22;100005.25;;;26.46;47.36
44825;BME280;30542;47.928;2.138;2022-08-03T23:39:44;100012.38;;;26.42;47.64
44825;BME280;30542;47.928;2.138;2022-08-03T23:44:46;100012.72;;;26.49;47.14
44825;BME280;30542;47.928;2.138;2022-08-03T23:49:49;100010.28;;;26.39;47.07
